< < Back
Terminal Aerodrome Forecast


Current Version              Previous Versions:   1  2  3  4  5  6  7  8  9  

Terminal Aerodrome Forecast

635
FTUS44 KMOB 031750
TAFPNS
TAF
KPNS 031750Z 0318/0418 25009KT P6SM FEW040 SCT180
     FM040200 20006KT P6SM FEW050 BKN200
     FM041500 28007KT P6SM VCTS SCT050CB BKN250=

Latest METAR

596
SAUS70 KWBC 040700 RRA
MTRPNS
METAR KPNS 040653Z AUTO 22007KT 10SM CLR 27/24 A3004 RMK AO2 SLP173
T02720244


USA.gov is the U.S. government's official web portal to all federal, state and local government web resources and services.